Decoded Metar for DTTZ (TOZEUR in TUNISIA) (IATA:TOE) | Meteo·Mobile Aviation Weather
aviador You're here:

DTTZ Decoded Metar

TOZEUR in TUNISIA
Report Time2019-12-11 08:00:00
UTC Time2019-12-11 08:56:57
Flight Rules vfr VFR
Wind260° at 11 kt
W.Decomp.*RWY 27: 10.8 kt HW 2.1 kt LCW
Visibility9999 m
Phenomena:N/A
Clouds:Few 033 Hf
Expected CloudBase > 4,000 ft AGL from Temp-Dew spread
CeilingNone
Temp10°C (ISA -4)
Dew Point00°C (50% RH)
AAT4.1°C
QNH1020 hPa
Density Alt-371 ft
Elevation305 ft
Report Wrong Elevation
Raw Report
METAR DTTZ 110800Z 26011KT 9999 FEW033 10/M00 Q1020 NOSIG=

Extra information for DTTZ:More info

Metar Taf Metar & Taf Last 4 Metars F.Rules Stats Wind Profile Meteogram Temp Stats Airport Information Weather charts Add Link Nearby VenuesMetar ALERT Operation Metar Decoded Social comments